createdAt,value
2017-09-10T00:00:41.367Z,9.70
2017-09-10T00:03:09.142Z,10.33
2017-09-10T00:05:36.659Z,9.67
2017-09-10T00:08:05.006Z,10.13
2017-09-10T00:10:32.568Z,9.93
2017-09-10T00:13:00.309Z,9.60
2017-09-10T00:15:27.847Z,9.30
2017-09-10T00:17:55.661Z,9.57
2017-09-10T00:20:23.208Z,29.07
2017-09-10T00:22:50.774Z,41.10
2017-09-10T00:25:18.302Z,47.73
2017-09-10T00:27:45.835Z,51.83
2017-09-10T00:30:13.493Z,32.80
2017-09-10T00:32:41.044Z,26.27
2017-09-10T00:35:08.678Z,20.90
2017-09-10T00:37:36.406Z,12.40
2017-09-10T00:40:04.191Z,10.70
2017-09-10T00:42:31.722Z,16.90
2017-09-10T00:44:59.288Z,22.37
2017-09-10T00:47:26.805Z,20.67
2017-09-10T00:49:54.671Z,17.50
2017-09-10T00:52:22.276Z,18.10
2017-09-10T00:54:49.849Z,19.33
2017-09-10T00:57:17.436Z,19.63
2017-09-10T00:59:45.020Z,19.20
2017-09-10T01:02:12.613Z,19.17
2017-09-10T01:04:40.186Z,19.30
2017-09-10T01:07:07.730Z,17.77
2017-09-10T01:09:35.322Z,17.83
2017-09-10T01:12:03.075Z,18.07
2017-09-10T01:14:30.926Z,16.40
2017-09-10T01:16:58.732Z,15.23
2017-09-10T01:19:26.291Z,13.63
2017-09-10T01:21:53.842Z,11.00
2017-09-10T01:24:21.409Z,9.63
2017-09-10T01:26:49.197Z,11.10
2017-09-10T01:29:16.726Z,13.67
2017-09-10T01:31:44.297Z,13.90
2017-09-10T01:34:11.868Z,11.77
2017-09-10T01:36:39.410Z,12.00
2017-09-10T01:39:06.961Z,12.93
2017-09-10T01:41:34.492Z,18.70
2017-09-10T01:44:02.019Z,15.13
2017-09-10T01:46:29.569Z,14.40
2017-09-10T01:48:57.122Z,14.00
2017-09-10T01:51:24.818Z,11.70
2017-09-10T01:53:52.412Z,11.30
2017-09-10T01:56:19.938Z,13.73
2017-09-10T01:58:48.629Z,16.33
2017-09-10T02:01:16.181Z,15.00
2017-09-10T02:03:43.703Z,19.00
2017-09-10T02:06:11.305Z,20.90
2017-09-10T02:08:38.855Z,15.70
2017-09-10T02:11:06.441Z,16.17
2017-09-10T02:13:33.957Z,16.90
2017-09-10T02:16:01.740Z,16.83
2017-09-10T02:18:29.435Z,17.00
2017-09-10T02:20:56.999Z,24.63
2017-09-10T02:23:24.559Z,15.97
2017-09-10T02:25:52.114Z,32.57
2017-09-10T02:28:19.854Z,50.20
2017-09-10T02:30:47.433Z,23.90
2017-09-10T02:33:14.989Z,41.33
2017-09-10T02:35:42.509Z,31.60
2017-09-10T02:38:10.230Z,30.20
2017-09-10T02:40:37.852Z,21.37
2017-09-10T02:43:05.453Z,25.00
2017-09-10T02:45:33.066Z,25.20
2017-09-10T02:48:00.604Z,19.17
2017-09-10T02:50:28.349Z,19.10
2017-09-10T02:52:55.890Z,17.67
2017-09-10T02:55:23.684Z,19.87
2017-09-10T02:57:51.201Z,19.43
2017-09-10T03:00:18.850Z,19.17
2017-09-10T03:02:46.382Z,17.90
2017-09-10T03:05:13.901Z,18.53
2017-09-10T03:07:41.446Z,16.40
2017-09-10T03:10:08.973Z,16.60
2017-09-10T03:12:36.737Z,15.83
2017-09-10T03:15:04.279Z,16.90
2017-09-10T03:17:31.776Z,13.53
2017-09-10T03:19:59.294Z,14.20
2017-09-10T03:22:27.241Z,13.30
2017-09-10T03:24:54.781Z,12.73
2017-09-10T03:27:22.299Z,13.37
2017-09-10T03:29:49.852Z,11.67
2017-09-10T03:32:17.390Z,13.40
2017-09-10T03:34:44.921Z,19.70
2017-09-10T03:37:12.438Z,23.83
2017-09-10T03:39:40.223Z,21.87
2017-09-10T03:42:07.780Z,19.77
2017-09-10T03:44:35.614Z,17.50
2017-09-10T03:47:03.149Z,16.20
2017-09-10T03:49:30.673Z,16.47
2017-09-10T03:51:58.180Z,16.47
2017-09-10T03:54:25.730Z,17.50
2017-09-10T03:56:53.238Z,16.47
2017-09-10T03:59:20.797Z,20.07
2017-09-10T04:01:48.391Z,18.80
2017-09-10T04:04:15.933Z,18.33
2017-09-10T04:06:43.437Z,18.17
2017-09-10T04:09:10.997Z,19.20
2017-09-10T04:11:38.531Z,19.00
2017-09-10T04:14:06.050Z,17.97
2017-09-10T04:16:33.846Z,22.70
2017-09-10T04:19:01.353Z,19.90
2017-09-10T04:21:28.884Z,21.37
2017-09-10T04:23:56.454Z,21.20
2017-09-10T04:26:23.997Z,22.20
2017-09-10T04:28:51.551Z,26.90
2017-09-10T04:31:19.154Z,23.93
2017-09-10T04:33:46.917Z,24.50
2017-09-10T04:36:14.697Z,23.30
2017-09-10T04:38:42.269Z,24.40
2017-09-10T04:41:09.822Z,23.20
2017-09-10T04:43:37.359Z,22.93
2017-09-10T04:46:04.909Z,21.47
2017-09-10T04:48:32.465Z,14.63
2017-09-10T04:50:59.981Z,11.57
2017-09-10T04:53:27.577Z,15.47
2017-09-10T04:55:55.137Z,12.30
2017-09-10T04:58:22.658Z,10.30
2017-09-10T05:00:50.205Z,10.30
2017-09-10T05:03:17.742Z,10.03
2017-09-10T05:05:45.287Z,13.60
2017-09-10T05:08:12.850Z,19.17
2017-09-10T05:10:40.360Z,19.57
2017-09-10T05:13:07.913Z,16.13
2017-09-10T05:15:35.480Z,12.13
2017-09-10T05:18:03.044Z,14.20
2017-09-10T05:20:30.587Z,15.23
2017-09-10T05:22:58.120Z,12.77
2017-09-10T05:25:25.670Z,13.30
2017-09-10T05:27:53.207Z,12.10
2017-09-10T05:30:20.818Z,14.50
2017-09-10T05:32:48.379Z,13.00
2017-09-10T05:35:15.895Z,11.73
2017-09-10T05:37:43.469Z,12.00
2017-09-10T05:40:10.975Z,11.90
2017-09-10T05:42:38.499Z,12.00
2017-09-10T05:45:06.046Z,12.30
2017-09-10T05:47:33.805Z,12.20
2017-09-10T05:50:01.334Z,13.80
2017-09-10T05:52:28.907Z,10.53
2017-09-10T05:54:56.483Z,9.47
2017-09-10T05:57:24.069Z,9.10
2017-09-10T05:59:51.613Z,9.93
2017-09-10T06:02:19.178Z,9.00
2017-09-10T06:04:46.704Z,9.07
2017-09-10T06:07:14.294Z,9.90
2017-09-10T06:09:41.854Z,9.13
2017-09-10T06:12:09.454Z,9.03
2017-09-10T06:14:37.045Z,8.63
2017-09-10T06:17:04.590Z,9.20
2017-09-10T06:19:32.141Z,8.23
2017-09-10T06:21:59.692Z,9.27
2017-09-10T06:24:27.258Z,8.87
2017-09-10T06:26:55.647Z,8.33
2017-09-10T06:29:23.146Z,8.20
2017-09-10T06:31:50.702Z,8.17
2017-09-10T06:34:18.299Z,7.80
2017-09-10T06:36:45.859Z,8.10
2017-09-10T06:39:13.422Z,9.10
2017-09-10T06:41:40.947Z,8.30
2017-09-10T06:44:08.452Z,8.17
2017-09-10T06:46:36.613Z,9.50
2017-09-10T06:49:09.154Z,8.93
2017-09-10T06:51:36.706Z,9.13
2017-09-10T06:54:04.253Z,7.90
2017-09-10T06:56:31.770Z,8.43
2017-09-10T06:58:59.402Z,8.53
2017-09-10T07:01:26.995Z,7.80
2017-09-10T07:03:54.793Z,7.00
2017-09-10T07:06:22.326Z,7.20
2017-09-10T07:08:49.897Z,7.20
2017-09-10T07:11:17.664Z,6.83
2017-09-10T07:13:45.402Z,6.60
2017-09-10T07:16:13.031Z,6.47
2017-09-10T07:18:41.351Z,6.80
2017-09-10T07:21:08.866Z,6.47
2017-09-10T07:23:36.467Z,6.33
2017-09-10T07:26:04.118Z,6.77
2017-09-10T07:28:31.690Z,5.80
2017-09-10T07:30:59.298Z,5.73
2017-09-10T07:33:26.821Z,6.10
2017-09-10T07:35:54.446Z,5.67
2017-09-10T07:38:22.009Z,6.40
2017-09-10T07:40:49.880Z,6.40
2017-09-10T07:43:19.401Z,5.80
2017-09-10T07:45:47.195Z,6.50
2017-09-10T07:48:14.790Z,5.57
2017-09-10T07:50:42.403Z,6.20
2017-09-10T07:53:10.793Z,5.83
2017-09-10T07:55:38.487Z,6.13
2017-09-10T07:58:06.075Z,6.80
2017-09-10T08:00:33.929Z,6.60
2017-09-10T08:03:01.491Z,6.33
2017-09-10T08:05:29.243Z,5.60
2017-09-10T08:07:56.860Z,5.57
2017-09-10T08:10:24.384Z,5.67
2017-09-10T08:12:52.123Z,6.07
2017-09-10T08:15:19.677Z,6.33
2017-09-10T08:17:47.414Z,5.50
2017-09-10T08:20:14.981Z,6.40
2017-09-10T08:22:42.755Z,6.03
2017-09-10T08:25:10.274Z,5.50
2017-09-10T08:27:37.886Z,5.17
2017-09-10T08:30:06.491Z,5.63
2017-09-10T08:32:34.055Z,6.63
2017-09-10T08:35:01.658Z,5.60
2017-09-10T08:37:29.236Z,5.20
2017-09-10T08:39:56.765Z,5.87
2017-09-10T08:42:24.291Z,5.23
2017-09-10T08:44:51.881Z,5.73
2017-09-10T08:47:19.458Z,5.50
2017-09-10T08:49:47.019Z,6.07
2017-09-10T08:52:14.599Z,7.27
2017-09-10T08:54:42.114Z,7.27
2017-09-10T08:57:10.186Z,5.33
2017-09-10T08:59:37.741Z,5.90
2017-09-10T09:02:05.371Z,5.83
2017-09-10T09:04:32.903Z,5.63
2017-09-10T09:07:00.471Z,7.10
2017-09-10T09:09:28.061Z,7.07
2017-09-10T09:11:55.866Z,6.37
2017-09-10T09:14:23.556Z,5.57
2017-09-10T09:16:52.054Z,5.83
2017-09-10T09:19:20.360Z,6.47
2017-09-10T09:21:48.636Z,6.37
2017-09-10T09:24:16.295Z,6.40
2017-09-10T09:26:43.882Z,6.10
2017-09-10T09:29:11.439Z,5.80
2017-09-10T09:31:39.244Z,6.50
2017-09-10T09:34:06.807Z,5.30
2017-09-10T09:36:34.451Z,6.43
2017-09-10T09:39:02.030Z,5.40
2017-09-10T09:41:29.799Z,5.70
2017-09-10T09:43:57.385Z,5.70
2017-09-10T09:46:24.969Z,6.10
2017-09-10T09:48:52.732Z,5.90
2017-09-10T09:51:20.287Z,5.43
2017-09-10T09:53:47.870Z,6.27
2017-09-10T09:56:15.603Z,4.40
2017-09-10T09:58:43.150Z,5.17
2017-09-10T10:01:10.733Z,5.67
2017-09-10T10:03:38.254Z,4.90
2017-09-10T10:06:05.807Z,5.37
2017-09-10T10:08:33.394Z,4.90
2017-09-10T10:11:00.917Z,5.20
2017-09-10T10:13:28.450Z,5.47
2017-09-10T10:15:56.025Z,4.60
2017-09-10T10:18:23.822Z,5.57
2017-09-10T10:20:51.338Z,4.87
2017-09-10T10:23:18.928Z,4.73
2017-09-10T10:25:46.490Z,4.60
2017-09-10T10:28:14.052Z,5.20
2017-09-10T10:30:41.624Z,4.97
2017-09-10T10:33:09.366Z,5.40
2017-09-10T10:35:36.939Z,5.80
2017-09-10T10:38:04.496Z,6.40
2017-09-10T10:40:32.030Z,5.30
2017-09-10T10:42:59.570Z,5.30
2017-09-10T10:45:27.265Z,5.43
2017-09-10T10:47:54.864Z,4.80
2017-09-10T10:50:22.455Z,5.70
2017-09-10T10:52:50.070Z,5.60
2017-09-10T10:55:17.713Z,5.97
2017-09-10T10:57:45.221Z,5.37
2017-09-10T11:00:12.850Z,5.73
2017-09-10T11:02:40.368Z,5.03
2017-09-10T11:05:07.878Z,5.80
2017-09-10T11:07:35.418Z,4.97
2017-09-10T11:10:02.972Z,5.37
2017-09-10T11:12:30.772Z,4.93
2017-09-10T11:14:58.345Z,4.53
2017-09-10T11:17:25.975Z,4.87
2017-09-10T11:19:53.742Z,4.50
2017-09-10T11:22:21.330Z,5.30
2017-09-10T11:24:49.616Z,5.00
2017-09-10T11:27:17.160Z,5.40
2017-09-10T11:29:44.745Z,5.40
2017-09-10T11:32:12.565Z,4.60
2017-09-10T11:34:40.081Z,5.80
2017-09-10T11:37:07.577Z,4.90
2017-09-10T11:39:35.372Z,5.73
2017-09-10T11:42:02.960Z,4.87
2017-09-10T11:44:30.706Z,6.67
2017-09-10T11:46:58.272Z,5.70
2017-09-10T11:49:25.843Z,5.43
2017-09-10T11:51:53.467Z,5.40
2017-09-10T11:54:21.099Z,5.40
2017-09-10T11:56:48.650Z,5.80
2017-09-10T11:59:16.629Z,4.93
2017-09-10T12:01:44.304Z,5.43
2017-09-10T12:04:11.853Z,5.40
2017-09-10T12:06:39.435Z,5.97
2017-09-10T12:09:06.981Z,5.10
2017-09-10T12:11:34.565Z,5.50
2017-09-10T12:14:04.806Z,6.20
2017-09-10T12:16:32.420Z,5.77
2017-09-10T12:19:00.035Z,6.77
2017-09-10T12:21:28.325Z,6.43
2017-09-10T12:23:58.934Z,5.40
2017-09-10T12:26:28.993Z,6.20
2017-09-10T12:29:00.055Z,6.27
2017-09-10T12:31:30.154Z,5.83
2017-09-10T12:34:00.850Z,6.90
2017-09-10T12:39:47.648Z,8.57
2017-09-10T12:42:16.220Z,6.97
2017-09-10T12:44:43.799Z,6.60
2017-09-10T12:47:11.450Z,7.07
2017-09-10T12:49:38.992Z,8.20
2017-09-10T12:52:06.639Z,7.60
2017-09-10T12:54:34.283Z,6.03
2017-09-10T13:00:30.613Z,5.87
2017-09-10T13:02:58.278Z,6.77
2017-09-10T13:05:27.231Z,7.17
2017-09-10T13:07:55.748Z,7.70
2017-09-10T13:10:24.472Z,8.23
2017-09-10T13:12:52.278Z,7.80
2017-09-10T13:15:20.089Z,7.80
2017-09-10T13:17:47.711Z,8.60
2017-09-10T13:20:15.246Z,8.30
2017-09-10T13:29:21.937Z,7.80
2017-09-10T13:36:11.375Z,8.07
2017-09-10T13:38:38.998Z,8.17
2017-09-10T13:41:18.429Z,8.07
2017-09-10T13:43:50.906Z,7.30
2017-09-10T13:46:19.239Z,8.13
2017-09-10T13:48:58.631Z,8.00
2017-09-10T13:51:27.393Z,8.70
2017-09-10T13:53:54.982Z,8.73
2017-09-10T13:56:22.665Z,10.57
2017-09-10T13:58:50.350Z,8.33
2017-09-10T14:01:18.846Z,8.20
2017-09-10T14:03:47.315Z,7.43
2017-09-10T14:06:15.122Z,8.10
2017-09-10T14:08:43.052Z,8.20
2017-09-10T14:11:11.517Z,8.00
2017-09-10T14:13:39.334Z,8.00
2017-09-10T14:16:07.789Z,8.23
2017-09-10T14:18:36.078Z,7.23
2017-09-10T14:21:03.707Z,7.13
2017-09-10T14:23:31.825Z,7.10
2017-09-10T14:25:59.418Z,8.47
2017-09-10T14:28:28.098Z,7.63
2017-09-10T14:30:55.768Z,8.70
2017-09-10T14:33:23.377Z,7.30
2017-09-10T14:39:11.555Z,8.50
2017-09-10T14:41:39.131Z,8.50
2017-09-10T14:44:06.805Z,8.37
2017-09-10T14:46:35.224Z,8.10
2017-09-10T14:49:03.233Z,9.40
2017-09-10T14:51:30.969Z,9.30
2017-09-10T14:53:58.630Z,8.80
2017-09-10T14:56:26.251Z,8.50
2017-09-10T14:58:53.870Z,8.83
2017-09-10T15:01:21.463Z,8.53
2017-09-10T15:03:49.083Z,8.27
2017-09-10T15:06:16.644Z,7.43
2017-09-10T15:08:44.287Z,8.27
2017-09-10T15:11:11.970Z,7.70
2017-09-10T15:13:39.547Z,7.20
2017-09-10T15:16:16.734Z,7.90
2017-09-10T15:18:52.080Z,7.90
2017-09-10T15:21:20.393Z,8.10
2017-09-10T15:23:48.214Z,8.00
2017-09-10T15:26:47.362Z,9.33
2017-09-10T15:29:16.012Z,7.77
2017-09-10T15:31:44.683Z,7.47
2017-09-10T15:34:52.113Z,6.90
2017-09-10T15:44:24.902Z,8.30
2017-09-10T15:46:54.479Z,8.37
2017-09-10T15:49:22.173Z,7.90
2017-09-10T15:51:49.815Z,7.10
2017-09-10T15:54:18.156Z,8.57
2017-09-10T15:56:53.622Z,8.63
2017-09-10T15:59:21.238Z,7.63
2017-09-10T16:02:15.889Z,9.13
2017-09-10T16:04:43.848Z,8.73
2017-09-10T16:07:11.700Z,9.13
2017-09-10T16:09:39.314Z,9.60
2017-09-10T16:12:07.089Z,8.90
2017-09-10T16:14:34.681Z,8.70
2017-09-10T16:17:02.276Z,9.83
2017-09-10T16:19:30.446Z,10.83
2017-09-10T16:21:58.287Z,8.63
2017-09-10T16:24:25.943Z,10.77
2017-09-10T16:26:53.683Z,11.17
2017-09-10T16:29:22.302Z,9.73
2017-09-10T16:31:49.916Z,9.63
2017-09-10T16:34:18.233Z,10.27
2017-09-10T16:36:45.811Z,10.97
2017-09-10T16:39:13.463Z,10.77
2017-09-10T16:41:41.511Z,9.70
2017-09-10T16:44:09.310Z,9.43
2017-09-10T16:46:37.807Z,9.43
2017-09-10T16:49:05.381Z,9.43
2017-09-10T16:51:33.263Z,9.73
2017-09-10T16:54:00.958Z,9.20
2017-09-10T16:56:28.776Z,9.20
2017-09-10T16:58:56.392Z,8.30
2017-09-10T17:01:24.133Z,8.63
2017-09-10T17:03:51.841Z,10.30
2017-09-10T17:06:19.484Z,8.77
2017-09-10T17:08:47.306Z,9.27
2017-09-10T17:11:14.996Z,12.03
2017-09-10T17:13:44.408Z,9.93
2017-09-10T17:16:12.141Z,11.07
2017-09-10T17:18:42.646Z,10.60
2017-09-10T17:21:10.814Z,9.93
2017-09-10T17:23:38.471Z,10.83
2017-09-10T17:26:06.130Z,11.03
2017-09-10T17:28:33.708Z,11.13
2017-09-10T17:31:01.378Z,10.90
2017-09-10T17:33:29.195Z,11.33
2017-09-10T17:35:56.806Z,11.40
2017-09-10T17:38:24.443Z,9.70
2017-09-10T17:40:52.107Z,10.83
2017-09-10T17:43:20.644Z,9.70
2017-09-10T17:45:48.278Z,9.67
2017-09-10T17:48:15.962Z,9.80
2017-09-10T17:50:43.585Z,9.10
2017-09-10T17:53:11.618Z,10.70
2017-09-10T17:55:39.258Z,10.50
2017-09-10T17:58:06.851Z,10.70
2017-09-10T18:00:34.567Z,13.53
2017-09-10T18:03:17.112Z,10.20
2017-09-10T18:05:44.797Z,28.23
2017-09-10T18:08:12.485Z,13.13
2017-09-10T18:10:40.053Z,10.53
2017-09-10T18:13:07.832Z,11.80
2017-09-10T18:15:35.491Z,12.73
2017-09-10T18:18:03.088Z,12.57
2017-09-10T18:20:40.763Z,12.00
2017-09-10T18:23:09.813Z,11.90
2017-09-10T18:25:37.433Z,11.47
2017-09-10T18:28:05.087Z,14.10
2017-09-10T18:30:32.803Z,12.80
2017-09-10T18:33:00.423Z,11.90
2017-09-10T18:35:28.700Z,11.27
2017-09-10T18:37:56.339Z,11.30
2017-09-10T18:40:24.012Z,12.93
2017-09-10T18:42:51.618Z,11.93
2017-09-10T18:45:20.126Z,11.50
2017-09-10T18:47:47.995Z,11.43
2017-09-10T18:50:17.272Z,13.50
2017-09-10T18:52:46.420Z,14.00
2017-09-10T18:55:14.092Z,13.90
2017-09-10T18:57:41.717Z,15.90
2017-09-10T19:00:13.939Z,15.33
2017-09-10T19:02:41.677Z,14.63
2017-09-10T19:05:12.071Z,14.80
2017-09-10T19:07:39.769Z,15.50
2017-09-10T19:10:07.443Z,13.77
2017-09-10T19:12:35.199Z,14.53
2017-09-10T19:15:03.713Z,15.70
2017-09-10T19:17:32.729Z,13.90
2017-09-10T19:20:00.396Z,14.67
2017-09-10T19:22:28.013Z,15.27
2017-09-10T19:24:55.631Z,15.87
2017-09-10T19:27:23.546Z,15.33
2017-09-10T19:29:54.997Z,14.57
2017-09-10T19:32:25.338Z,14.20
2017-09-10T19:34:53.445Z,13.03
2017-09-10T19:37:21.029Z,12.40
2017-09-10T19:39:48.606Z,12.10
2017-09-10T19:42:16.171Z,13.67
2017-09-10T19:44:44.293Z,13.37
2017-09-10T19:47:12.115Z,11.57
2017-09-10T19:49:39.771Z,12.37
2017-09-10T19:52:08.121Z,12.90
2017-09-10T19:54:35.781Z,13.17
2017-09-10T19:57:03.541Z,12.23
2017-09-10T19:59:31.464Z,13.77
2017-09-10T20:01:59.046Z,13.50
2017-09-10T20:04:26.883Z,13.60
2017-09-10T20:06:54.536Z,13.13
2017-09-10T20:09:22.154Z,14.40
2017-09-10T20:11:49.915Z,14.60
2017-09-10T20:14:17.462Z,14.87
2017-09-10T20:16:45.713Z,14.93
2017-09-10T20:19:13.302Z,16.10
2017-09-10T20:21:40.850Z,15.30
2017-09-10T20:24:08.433Z,16.83
2017-09-10T20:26:36.796Z,16.03
2017-09-10T20:29:04.358Z,23.20
2017-09-10T20:31:31.998Z,16.40
2017-09-10T20:33:59.546Z,16.83
2017-09-10T20:36:27.129Z,16.57
2017-09-10T20:38:54.760Z,16.50
2017-09-10T20:41:22.310Z,16.27
2017-09-10T20:43:50.656Z,16.97
2017-09-10T20:46:18.229Z,16.70
2017-09-10T20:48:45.754Z,15.33
2017-09-10T20:51:13.277Z,17.37
2017-09-10T20:53:40.890Z,16.10
2017-09-10T20:56:08.616Z,16.70
2017-09-10T20:58:37.395Z,16.03
2017-09-10T21:01:05.643Z,15.63
2017-09-10T21:03:37.135Z,15.20
2017-09-10T21:06:20.202Z,15.50
2017-09-10T21:08:49.415Z,15.63
2017-09-10T21:11:23.265Z,15.00
2017-09-10T21:13:50.809Z,15.70
2017-09-10T21:16:18.331Z,16.80
2017-09-10T21:18:45.914Z,14.40
2017-09-10T21:21:13.434Z,15.17
2017-09-10T21:23:40.962Z,15.27
2017-09-10T21:26:08.552Z,15.27
2017-09-10T21:28:36.070Z,15.00
2017-09-10T21:31:03.653Z,14.00
2017-09-10T21:33:31.242Z,15.47
2017-09-10T21:35:58.796Z,15.03
2017-09-10T21:38:26.367Z,16.80
2017-09-10T21:40:54.013Z,15.67
2017-09-10T21:43:21.540Z,14.90
2017-09-10T21:45:49.089Z,16.30
2017-09-10T21:48:16.622Z,15.37
2017-09-10T21:50:44.190Z,15.07
2017-09-10T21:53:11.757Z,16.27
2017-09-10T21:55:39.327Z,14.80
2017-09-10T21:58:07.131Z,16.70
2017-09-10T22:00:34.755Z,16.47
2017-09-10T22:03:02.290Z,16.40
2017-09-10T22:05:29.797Z,16.97
2017-09-10T22:07:57.660Z,16.60
2017-09-10T22:10:25.569Z,16.33
2017-09-10T22:12:53.398Z,16.67
2017-09-10T22:15:21.657Z,16.33
2017-09-10T22:17:49.603Z,17.23
2017-09-10T22:20:17.758Z,17.80
2017-09-10T22:22:45.591Z,16.83
2017-09-10T22:25:13.362Z,17.67
2017-09-10T22:27:40.875Z,17.23
2017-09-10T22:30:08.565Z,17.63
2017-09-10T22:32:36.082Z,17.93
2017-09-10T22:35:03.601Z,16.57
2017-09-10T22:37:31.183Z,16.60
2017-09-10T22:39:58.743Z,18.80
2017-09-10T22:42:26.271Z,19.23
2017-09-10T22:44:53.851Z,20.33
2017-09-10T22:47:21.718Z,19.00
2017-09-10T22:49:49.523Z,16.33
2017-09-10T22:52:17.090Z,18.80
2017-09-10T22:54:44.672Z,16.60
2017-09-10T22:57:12.277Z,18.40
2017-09-10T22:59:39.892Z,17.80
2017-09-10T23:02:07.440Z,16.50
2017-09-10T23:04:35.050Z,16.73
2017-09-10T23:07:02.578Z,17.13
2017-09-10T23:09:30.147Z,17.93
2017-09-10T23:11:57.695Z,16.67
2017-09-10T23:14:25.227Z,15.63
2017-09-10T23:16:52.965Z,16.20
2017-09-10T23:19:20.548Z,15.60
2017-09-10T23:21:48.180Z,15.80
2017-09-10T23:24:15.813Z,16.40
2017-09-10T23:26:43.337Z,17.47
2017-09-10T23:29:11.044Z,16.53
2017-09-10T23:31:38.719Z,17.77
2017-09-10T23:34:06.245Z,16.13
2017-09-10T23:36:33.774Z,14.10
2017-09-10T23:39:01.423Z,14.23
2017-09-10T23:41:28.984Z,13.13
2017-09-10T23:43:56.645Z,14.00
2017-09-10T23:46:24.286Z,13.17
2017-09-10T23:48:51.841Z,13.07
2017-09-10T23:51:19.357Z,13.87
2017-09-10T23:53:46.959Z,12.13
2017-09-10T23:56:14.486Z,12.10
2017-09-10T23:58:42.042Z,11.67
